sensor_id;sensor_type;location;lat;lon;timestamp;pressure;altitude;pressure_sealevel;temperature;humidity
75424;BME280;64005;55.160;36.002;2023-02-28T00:00:55;99797.88;;;-6.78;73.47
75424;BME280;64005;55.160;36.002;2023-02-28T00:03:23;99789.97;;;-6.80;73.41
75424;BME280;64005;55.160;36.002;2023-02-28T00:05:50;99791.16;;;-6.96;73.90
75424;BME280;64005;55.160;36.002;2023-02-28T00:08:19;99791.16;;;-6.96;74.50
75424;BME280;64005;55.160;36.002;2023-02-28T00:10:47;99792.63;;;-6.93;74.18
75424;BME280;64005;55.160;36.002;2023-02-28T00:13:14;99788.28;;;-6.88;73.86
75424;BME280;64005;55.160;36.002;2023-02-28T00:15:42;99781.41;;;-6.90;73.93
75424;BME280;64005;55.160;36.002;2023-02-28T00:18:11;99778.69;;;-6.90;73.83
75424;BME280;64005;55.160;36.002;2023-02-28T00:20:39;99773.72;;;-6.87;73.44
75424;BME280;64005;55.160;36.002;2023-02-28T00:23:07;99775.41;;;-6.86;73.50
75424;BME280;64005;55.160;36.002;2023-02-28T00:25:37;99769.34;;;-6.81;73.61
75424;BME280;64005;55.160;36.002;2023-02-28T00:28:04;99754.38;;;-6.77;73.35
75424;BME280;64005;55.160;36.002;2023-02-28T00:30:32;99764.97;;;-6.82;73.25
75424;BME280;64005;55.160;36.002;2023-02-28T00:32:59;99763.94;;;-6.88;73.02
75424;BME280;64005;55.160;36.002;2023-02-28T00:35:27;99752.06;;;-6.93;73.04
75424;BME280;64005;55.160;36.002;2023-02-28T00:37:54;99753.94;;;-7.00;73.38
75424;BME280;64005;55.160;36.002;2023-02-28T00:40:21;99748.69;;;-7.08;73.86
75424;BME280;64005;55.160;36.002;2023-02-28T00:42:50;99751.00;;;-7.12;73.79
75424;BME280;64005;55.160;36.002;2023-02-28T00:45:18;99750.16;;;-7.12;74.11
75424;BME280;64005;55.160;36.002;2023-02-28T00:47:46;99742.63;;;-7.17;73.85
75424;BME280;64005;55.160;36.002;2023-02-28T00:50:16;99762.41;;;-7.10;73.84
75424;BME280;64005;55.160;36.002;2023-02-28T00:52:44;99741.81;;;-7.11;73.47
75424;BME280;64005;55.160;36.002;2023-02-28T00:55:12;99747.25;;;-7.04;73.70
75424;BME280;64005;55.160;36.002;2023-02-28T00:57:39;99748.09;;;-7.04;74.00
75424;BME280;64005;55.160;36.002;2023-02-28T01:00:09;99748.09;;;-7.04;73.66
75424;BME280;64005;55.160;36.002;2023-02-28T01:02:37;99740.59;;;-7.02;73.97
75424;BME280;64005;55.160;36.002;2023-02-28T01:05:05;99740.81;;;-7.03;73.67
75424;BME280;64005;55.160;36.002;2023-02-28T01:07:33;99728.13;;;-7.03;73.99
75424;BME280;64005;55.160;36.002;2023-02-28T01:10:00;99724.59;;;-7.03;73.92
75424;BME280;64005;55.160;36.002;2023-02-28T01:12:29;99720.00;;;-7.03;73.63
75424;BME280;64005;55.160;36.002;2023-02-28T01:14:57;99712.53;;;-7.07;73.73
75424;BME280;64005;55.160;36.002;2023-02-28T01:17:26;99710.00;;;-7.15;73.42
75424;BME280;64005;55.160;36.002;2023-02-28T01:19:54;99708.75;;;-7.19;74.03
75424;BME280;64005;55.160;36.002;2023-02-28T01:22:22;99696.47;;;-7.29;73.92
75424;BME280;64005;55.160;36.002;2023-02-28T01:24:50;99706.88;;;-7.32;74.04
75424;BME280;64005;55.160;36.002;2023-02-28T01:27:17;99700.19;;;-7.36;74.18
75424;BME280;64005;55.160;36.002;2023-02-28T01:29:45;99703.69;;;-7.42;74.32
75424;BME280;64005;55.160;36.002;2023-02-28T01:32:12;99697.63;;;-7.51;74.34
75424;BME280;64005;55.160;36.002;2023-02-28T01:34:41;99701.41;;;-7.52;74.50
75424;BME280;64005;55.160;36.002;2023-02-28T01:37:09;99702.00;;;-7.50;74.67
75424;BME280;64005;55.160;36.002;2023-02-28T01:39:36;99701.19;;;-7.44;74.51
75424;BME280;64005;55.160;36.002;2023-02-28T01:42:04;99682.91;;;-7.48;74.00
75424;BME280;64005;55.160;36.002;2023-02-28T01:45:01;99702.03;;;-7.37;74.30
75424;BME280;64005;55.160;36.002;2023-02-28T01:47:34;99699.78;;;-7.40;74.09
75424;BME280;64005;55.160;36.002;2023-02-28T01:50:07;99694.75;;;-7.43;74.46
75424;BME280;64005;55.160;36.002;2023-02-28T01:52:37;99688.75;;;-7.45;74.34
75424;BME280;64005;55.160;36.002;2023-02-28T01:55:07;99681.03;;;-7.48;74.44
75424;BME280;64005;55.160;36.002;2023-02-28T01:57:37;99657.88;;;-7.70;74.40
75424;BME280;64005;55.160;36.002;2023-02-28T02:00:09;99683.91;;;-7.56;74.87
75424;BME280;64005;55.160;36.002;2023-02-28T02:02:40;99580.03;;;-8.21;74.72
75424;BME280;64005;55.160;36.002;2023-02-28T02:05:13;99662.88;;;-7.74;75.06
75424;BME280;64005;55.160;36.002;2023-02-28T02:07:44;99684.91;;;-7.70;74.75
75424;BME280;64005;55.160;36.002;2023-02-28T02:10:14;99681.16;;;-7.69;74.74
75424;BME280;64005;55.160;36.002;2023-02-28T02:13:08;99668.50;;;-7.69;74.80
75424;BME280;64005;55.160;36.002;2023-02-28T02:16:06;99662.44;;;-7.77;74.69
75424;BME280;64005;55.160;36.002;2023-02-28T02:18:42;99662.03;;;-7.74;74.83
75424;BME280;64005;55.160;36.002;2023-02-28T02:21:45;99663.25;;;-7.77;74.70
75424;BME280;64005;55.160;36.002;2023-02-28T02:24:43;99646.19;;;-7.90;74.96
75424;BME280;64005;55.160;36.002;2023-02-28T02:27:23;99636.38;;;-8.05;75.28
75424;BME280;64005;55.160;36.002;2023-02-28T02:30:18;99647.16;;;-8.11;75.21
75424;BME280;64005;55.160;36.002;2023-02-28T02:33:03;99642.94;;;-8.20;75.69
75424;BME280;64005;55.160;36.002;2023-02-28T02:35:38;99629.22;;;-8.25;75.61
75424;BME280;64005;55.160;36.002;2023-02-28T02:38:11;99633.81;;;-8.19;75.71
75424;BME280;64005;55.160;36.002;2023-02-28T02:40:44;99634.66;;;-8.19;75.64
75424;BME280;64005;55.160;36.002;2023-02-28T02:43:17;99621.56;;;-8.22;75.90
75424;BME280;64005;55.160;36.002;2023-02-28T02:45:50;99633.38;;;-8.23;75.21
75424;BME280;64005;55.160;36.002;2023-02-28T02:48:23;99615.72;;;-8.32;75.86
75424;BME280;64005;55.160;36.002;2023-02-28T02:50:56;99632.34;;;-8.22;75.75
75424;BME280;64005;55.160;36.002;2023-02-28T02:53:30;99613.66;;;-8.23;75.59
75424;BME280;64005;55.160;36.002;2023-02-28T02:56:00;99621.19;;;-8.12;75.75
75424;BME280;64005;55.160;36.002;2023-02-28T02:58:32;99611.84;;;-8.10;75.63
75424;BME280;64005;55.160;36.002;2023-02-28T03:01:02;99617.06;;;-8.02;75.48
75424;BME280;64005;55.160;36.002;2023-02-28T03:03:33;99613.16;;;-7.99;75.23
75424;BME280;64005;55.160;36.002;2023-02-28T03:06:03;99605.88;;;-7.98;75.34
75424;BME280;64005;55.160;36.002;2023-02-28T03:08:35;99571.34;;;-8.16;75.20
75424;BME280;64005;55.160;36.002;2023-02-28T03:11:05;99580.53;;;-7.97;75.26
75424;BME280;64005;55.160;36.002;2023-02-28T03:17:00;99503.59;;;-8.48;75.03
75424;BME280;64005;55.160;36.002;2023-02-28T03:19:45;99567.25;;;-8.06;75.09
75424;BME280;64005;55.160;36.002;2023-02-28T03:22:35;99565.34;;;-8.12;75.34
75424;BME280;64005;55.160;36.002;2023-02-28T03:25:11;99567.19;;;-8.19;75.70
75424;BME280;64005;55.160;36.002;2023-02-28T03:27:42;99552.44;;;-8.16;75.72
75424;BME280;64005;55.160;36.002;2023-02-28T03:30:16;99550.78;;;-8.17;75.72
75424;BME280;64005;55.160;36.002;2023-02-28T03:32:55;99543.75;;;-8.12;75.78
75424;BME280;64005;55.160;36.002;2023-02-28T03:35:27;99539.19;;;-8.11;76.03
75424;BME280;64005;55.160;36.002;2023-02-28T03:38:06;99517.34;;;-8.16;75.69
75424;BME280;64005;55.160;36.002;2023-02-28T03:40:43;99525.69;;;-8.18;75.69
75424;BME280;64005;55.160;36.002;2023-02-28T03:43:18;99504.00;;;-8.44;75.87
75424;BME280;64005;55.160;36.002;2023-02-28T03:45:50;99530.22;;;-8.31;76.28
75424;BME280;64005;55.160;36.002;2023-02-28T03:48:21;99530.81;;;-8.36;76.07
75424;BME280;64005;55.160;36.002;2023-02-28T03:50:52;99528.53;;;-8.39;76.50
75424;BME280;64005;55.160;36.002;2023-02-28T03:53:29;99515.41;;;-8.49;76.34
75424;BME280;64005;55.160;36.002;2023-02-28T03:56:03;99483.38;;;-8.71;76.56
75424;BME280;64005;55.160;36.002;2023-02-28T03:58:37;99501.50;;;-8.59;76.40
75424;BME280;64005;55.160;36.002;2023-02-28T04:01:08;99504.56;;;-8.62;76.43
75424;BME280;64005;55.160;36.002;2023-02-28T04:03:41;99501.22;;;-8.64;76.57
75424;BME280;64005;55.160;36.002;2023-02-28T04:06:16;99493.56;;;-8.67;76.51
75424;BME280;64005;55.160;36.002;2023-02-28T04:08:46;99498.13;;;-8.67;76.49
75424;BME280;64005;55.160;36.002;2023-02-28T04:11:20;99500.59;;;-8.72;76.55
75424;BME280;64005;55.160;36.002;2023-02-28T04:13:48;99488.75;;;-8.78;76.54
75424;BME280;64005;55.160;36.002;2023-02-28T04:16:16;99489.59;;;-8.77;76.71
75424;BME280;64005;55.160;36.002;2023-02-28T04:18:44;99494.34;;;-8.79;76.76
75424;BME280;64005;55.160;36.002;2023-02-28T04:21:11;99493.50;;;-8.80;76.84
75424;BME280;64005;55.160;36.002;2023-02-28T04:23:39;99485.41;;;-8.80;76.90
75424;BME280;64005;55.160;36.002;2023-02-28T04:26:08;99480.84;;;-8.79;76.84
75424;BME280;64005;55.160;36.002;2023-02-28T04:28:37;99484.59;;;-8.80;76.90
75424;BME280;64005;55.160;36.002;2023-02-28T04:31:05;99481.06;;;-8.81;76.93
75424;BME280;64005;55.160;36.002;2023-02-28T04:33:32;99471.94;;;-8.80;76.92
75424;BME280;64005;55.160;36.002;2023-02-28T04:36:02;99480.84;;;-8.79;76.93
75424;BME280;64005;55.160;36.002;2023-02-28T04:38:32;99453.22;;;-8.88;76.74
75424;BME280;64005;55.160;36.002;2023-02-28T04:41:00;99467.19;;;-8.78;76.87
75424;BME280;64005;55.160;36.002;2023-02-28T04:43:29;99457.44;;;-8.79;76.93
75424;BME280;64005;55.160;36.002;2023-02-28T04:46:00;99459.50;;;-8.74;76.86
75424;BME280;64005;55.160;36.002;2023-02-28T04:48:30;99460.16;;;-8.72;76.33
75424;BME280;64005;55.160;36.002;2023-02-28T04:51:00;99463.47;;;-8.70;76.83
75424;BME280;64005;55.160;36.002;2023-02-28T04:53:29;99457.47;;;-8.66;76.41
75424;BME280;64005;55.160;36.002;2023-02-28T04:55:57;99455.41;;;-8.57;76.59
75424;BME280;64005;55.160;36.002;2023-02-28T04:58:25;99440.72;;;-8.55;76.47
75424;BME280;64005;55.160;36.002;2023-02-28T05:00:54;99415.59;;;-8.62;76.85
75424;BME280;64005;55.160;36.002;2023-02-28T05:03:28;99433.88;;;-8.51;76.65
75424;BME280;64005;55.160;36.002;2023-02-28T05:05:56;99428.47;;;-8.44;76.58
75424;BME280;64005;55.160;36.002;2023-02-28T05:08:23;99429.34;;;-8.37;76.55
75424;BME280;64005;55.160;36.002;2023-02-28T05:10:51;99435.53;;;-8.30;76.49
75424;BME280;64005;55.160;36.002;2023-02-28T05:13:18;99433.91;;;-8.24;76.42
75424;BME280;64005;55.160;36.002;2023-02-28T05:15:45;99426.63;;;-8.17;76.27
75424;BME280;64005;55.160;36.002;2023-02-28T05:18:14;99420.66;;;-8.13;76.28
75424;BME280;64005;55.160;36.002;2023-02-28T05:20:42;99401.97;;;-8.08;76.21
75424;BME280;64005;55.160;36.002;2023-02-28T05:23:11;99413.59;;;-8.00;75.97
75424;BME280;64005;55.160;36.002;2023-02-28T05:25:40;99397.78;;;-7.97;75.67
75424;BME280;64005;55.160;36.002;2023-02-28T05:28:08;99411.09;;;-7.89;75.90
75424;BME280;64005;55.160;36.002;2023-02-28T05:30:35;99404.66;;;-7.81;75.65
75424;BME280;64005;55.160;36.002;2023-02-28T05:33:03;99410.69;;;-7.79;75.81
75424;BME280;64005;55.160;36.002;2023-02-28T05:35:32;99392.19;;;-7.76;75.92
75424;BME280;64005;55.160;36.002;2023-02-28T05:37:59;99383.69;;;-7.66;75.66
75424;BME280;64005;55.160;36.002;2023-02-28T05:40:27;99380.13;;;-7.60;75.48
75424;BME280;64005;55.160;36.002;2023-02-28T05:42:54;99381.56;;;-7.51;74.89
75424;BME280;64005;55.160;36.002;2023-02-28T05:45:22;99391.31;;;-7.50;75.37
75424;BME280;64005;55.160;36.002;2023-02-28T05:47:53;99380.31;;;-7.42;74.91
75424;BME280;64005;55.160;36.002;2023-02-28T05:50:20;99360.97;;;-7.32;74.91
75424;BME280;64005;55.160;36.002;2023-02-28T05:52:51;99360.31;;;-7.28;74.74
75424;BME280;64005;55.160;36.002;2023-02-28T05:55:18;99350.53;;;-7.22;74.30
75424;BME280;64005;55.160;36.002;2023-02-28T05:57:46;99350.69;;;-7.17;74.49
75424;BME280;64005;55.160;36.002;2023-02-28T06:00:14;99353.16;;;-7.09;73.90
75424;BME280;64005;55.160;36.002;2023-02-28T06:02:44;99342.97;;;-7.07;73.60
75424;BME280;64005;55.160;36.002;2023-02-28T06:05:14;99336.88;;;-6.96;73.85
75424;BME280;64005;55.160;36.002;2023-02-28T06:07:41;99335.59;;;-6.87;73.70
75424;BME280;64005;55.160;36.002;2023-02-28T06:10:11;99328.69;;;-6.76;73.58
75424;BME280;64005;55.160;36.002;2023-02-28T06:12:39;99330.31;;;-6.68;73.44
75424;BME280;64005;55.160;36.002;2023-02-28T06:15:11;99244.84;;;-7.07;73.02
75424;BME280;64005;55.160;36.002;2023-02-28T06:17:39;99321.31;;;-6.62;72.74
75424;BME280;64005;55.160;36.002;2023-02-28T06:20:08;99319.13;;;-6.47;72.26
75424;BME280;64005;55.160;36.002;2023-02-28T06:22:36;99322.19;;;-6.37;72.19
75424;BME280;64005;55.160;36.002;2023-02-28T06:25:05;99321.66;;;-6.21;72.10
75424;BME280;64005;55.160;36.002;2023-02-28T06:27:34;99312.16;;;-6.05;72.04
75424;BME280;64005;55.160;36.002;2023-02-28T06:30:02;99294.19;;;-5.99;71.60
75424;BME280;64005;55.160;36.002;2023-02-28T06:32:30;99302.53;;;-5.83;71.33
75424;BME280;64005;55.160;36.002;2023-02-28T06:34:57;99295.31;;;-5.71;70.43
75424;BME280;64005;55.160;36.002;2023-02-28T06:37:25;99295.25;;;-5.64;70.69
75424;BME280;64005;55.160;36.002;2023-02-28T06:39:54;99293.91;;;-5.55;69.62
75424;BME280;64005;55.160;36.002;2023-02-28T06:42:22;99288.56;;;-5.43;69.95
75424;BME280;64005;55.160;36.002;2023-02-28T06:44:53;99285.63;;;-5.42;68.97
75424;BME280;64005;55.160;36.002;2023-02-28T06:47:20;99280.13;;;-5.35;68.89
75424;BME280;64005;55.160;36.002;2023-02-28T06:49:48;99278.31;;;-5.23;68.89
75424;BME280;64005;55.160;36.002;2023-02-28T06:52:16;99273.94;;;-5.06;68.42
75424;BME280;64005;55.160;36.002;2023-02-28T06:54:43;99264.88;;;-5.00;67.91
75424;BME280;64005;55.160;36.002;2023-02-28T06:57:11;99265.53;;;-4.86;67.96
75424;BME280;64005;55.160;36.002;2023-02-28T06:59:38;99239.47;;;-4.75;67.43
75424;BME280;64005;55.160;36.002;2023-02-28T07:02:08;99252.59;;;-4.72;67.10
75424;BME280;64005;55.160;36.002;2023-02-28T07:04:35;99245.78;;;-4.52;67.05
75424;BME280;64005;55.160;36.002;2023-02-28T07:07:03;99255.00;;;-4.53;66.59
75424;BME280;64005;55.160;36.002;2023-02-28T07:09:30;99240.50;;;-4.47;65.71
75424;BME280;64005;55.160;36.002;2023-02-28T07:11:57;99230.25;;;-4.33;65.42
75424;BME280;64005;55.160;36.002;2023-02-28T07:14:26;99228.25;;;-4.26;65.42
75424;BME280;64005;55.160;36.002;2023-02-28T07:16:53;99205.94;;;-4.28;65.10
75424;BME280;64005;55.160;36.002;2023-02-28T07:19:22;99203.22;;;-4.16;64.86
75424;BME280;64005;55.160;36.002;2023-02-28T07:21:50;99200.16;;;-4.20;63.41
75424;BME280;64005;55.160;36.002;2023-02-28T07:24:17;99198.84;;;-4.06;63.80
75424;BME280;64005;55.160;36.002;2023-02-28T07:26:45;99201.66;;;-3.89;63.46
75424;BME280;64005;55.160;36.002;2023-02-28T07:29:12;99197.75;;;-3.81;62.62
75424;BME280;64005;55.160;36.002;2023-02-28T07:31:40;99164.66;;;-3.78;62.49
75424;BME280;64005;55.160;36.002;2023-02-28T07:34:07;99182.81;;;-3.55;62.79
75424;BME280;64005;55.160;36.002;2023-02-28T07:36:36;99179.22;;;-3.44;61.66
75424;BME280;64005;55.160;36.002;2023-02-28T07:39:03;99183.78;;;-3.22;61.55
75424;BME280;64005;55.160;36.002;2023-02-28T07:41:31;99156.66;;;-3.16;61.04
75424;BME280;64005;55.160;36.002;2023-02-28T07:44:00;99153.09;;;-3.17;60.60
75424;BME280;64005;55.160;36.002;2023-02-28T07:46:29;99146.13;;;-3.13;60.11
75424;BME280;64005;55.160;36.002;2023-02-28T07:49:01;99144.19;;;-3.12;59.83
75424;BME280;64005;55.160;36.002;2023-02-28T07:51:29;99149.44;;;-2.94;59.83
75424;BME280;64005;55.160;36.002;2023-02-28T07:53:58;99137.09;;;-2.68;59.83
75424;BME280;64005;55.160;36.002;2023-02-28T07:56:26;99132.75;;;-2.53;58.56
75424;BME280;64005;55.160;36.002;2023-02-28T07:58:53;99122.81;;;-2.59;58.22
75424;BME280;64005;55.160;36.002;2023-02-28T08:01:21;99116.53;;;-2.43;58.44
75424;BME280;64005;55.160;36.002;2023-02-28T08:03:48;99111.50;;;-2.51;57.48
75424;BME280;64005;55.160;36.002;2023-02-28T08:06:18;99020.88;;;-3.18;57.00
75424;BME280;64005;55.160;36.002;2023-02-28T08:08:47;99084.34;;;-2.46;57.79
75424;BME280;64005;55.160;36.002;2023-02-28T08:11:17;99084.84;;;-2.49;57.32
75424;BME280;64005;55.160;36.002;2023-02-28T08:13:45;99107.06;;;-2.18;57.32
75424;BME280;64005;55.160;36.002;2023-02-28T08:16:14;99085.19;;;-2.07;56.73
75424;BME280;64005;55.160;36.002;2023-02-28T08:18:47;99091.31;;;-1.73;56.68
75424;BME280;64005;55.160;36.002;2023-02-28T08:21:14;99091.41;;;-1.68;55.86
75424;BME280;64005;55.160;36.002;2023-02-28T08:23:41;99084.97;;;-1.56;56.44
75424;BME280;64005;55.160;36.002;2023-02-28T08:26:09;99060.13;;;-1.60;55.61
75424;BME280;64005;55.160;36.002;2023-02-28T08:28:38;99035.72;;;-1.72;55.62
75424;BME280;64005;55.160;36.002;2023-02-28T08:31:09;99083.59;;;-1.32;56.67
75424;BME280;64005;55.160;36.002;2023-02-28T08:33:38;99076.84;;;-0.98;56.37
75424;BME280;64005;55.160;36.002;2023-02-28T08:36:07;99067.78;;;-1.03;55.22
75424;BME280;64005;55.160;36.002;2023-02-28T08:38:35;99061.22;;;-1.07;54.52
75424;BME280;64005;55.160;36.002;2023-02-28T08:41:05;99058.16;;;-0.79;54.58
75424;BME280;64005;55.160;36.002;2023-02-28T08:43:33;99074.09;;;-0.66;55.09
75424;BME280;64005;55.160;36.002;2023-02-28T08:46:02;99051.41;;;-0.66;54.74
75424;BME280;64005;55.160;36.002;2023-02-28T08:48:32;99025.28;;;-0.52;54.56
75424;BME280;64005;55.160;36.002;2023-02-28T08:51:01;99036.28;;;-0.47;54.36
75424;BME280;64005;55.160;36.002;2023-02-28T08:53:29;99036.88;;;-0.35;54.00
75424;BME280;64005;55.160;36.002;2023-02-28T08:55:58;99029.19;;;-0.43;54.49
75424;BME280;64005;55.160;36.002;2023-02-28T08:58:29;99050.56;;;-0.30;54.74
75424;BME280;64005;55.160;36.002;2023-02-28T09:00:57;99045.09;;;-0.30;54.13
75424;BME280;64005;55.160;36.002;2023-02-28T09:03:26;99049.59;;;-0.14;54.80
75424;BME280;64005;55.160;36.002;2023-02-28T09:05:55;99009.00;;;-0.32;54.56
75424;BME280;64005;55.160;36.002;2023-02-28T09:08:24;99017.75;;;-0.35;54.50
75424;BME280;64005;55.160;36.002;2023-02-28T09:10:52;99019.31;;;-0.49;55.14
75424;BME280;64005;55.160;36.002;2023-02-28T09:13:20;99019.75;;;-0.67;55.26
75424;BME280;64005;55.160;36.002;2023-02-28T09:15:47;99019.59;;;-0.46;54.92
75424;BME280;64005;55.160;36.002;2023-02-28T09:18:15;99015.38;;;-0.21;54.26
75424;BME280;64005;55.160;36.002;2023-02-28T09:20:44;98993.88;;;0.03;53.83
75424;BME280;64005;55.160;36.002;2023-02-28T09:23:12;98996.75;;;-0.24;54.26
75424;BME280;64005;55.160;36.002;2023-02-28T09:25:45;98999.88;;;-0.01;54.46
75424;BME280;64005;55.160;36.002;2023-02-28T09:28:13;98964.94;;;0.27;53.73
75424;BME280;64005;55.160;36.002;2023-02-28T09:30:44;98965.28;;;0.76;53.58
75424;BME280;64005;55.160;36.002;2023-02-28T09:33:12;98974.06;;;1.03;53.37
75424;BME280;64005;55.160;36.002;2023-02-28T09:35:39;98960.91;;;0.95;52.80
75424;BME280;64005;55.160;36.002;2023-02-28T09:38:08;98971.31;;;0.83;53.19
75424;BME280;64005;55.160;36.002;2023-02-28T09:40:41;98976.50;;;0.74;53.96
75424;BME280;64005;55.160;36.002;2023-02-28T09:43:14;98983.06;;;0.73;54.05
75424;BME280;64005;55.160;36.002;2023-02-28T09:45:48;98983.91;;;0.74;54.40
75424;BME280;64005;55.160;36.002;2023-02-28T09:48:21;98991.00;;;0.55;54.27
75424;BME280;64005;55.160;36.002;2023-02-28T09:50:52;98971.00;;;0.44;54.81
75424;BME280;64005;55.160;36.002;2023-02-28T09:53:27;98950.22;;;0.38;54.12
75424;BME280;64005;55.160;36.002;2023-02-28T09:56:02;98952.97;;;0.63;53.93
75424;BME280;64005;55.160;36.002;2023-02-28T09:58:34;98935.72;;;0.68;54.02
75424;BME280;64005;55.160;36.002;2023-02-28T10:01:12;98945.84;;;0.67;54.01
75424;BME280;64005;55.160;36.002;2023-02-28T10:03:50;98940.38;;;0.52;54.46
75424;BME280;64005;55.160;36.002;2023-02-28T10:06:27;98908.31;;;0.22;54.78
75424;BME280;64005;55.160;36.002;2023-02-28T10:09:02;98886.38;;;-0.08;55.64
75424;BME280;64005;55.160;36.002;2023-02-28T10:11:33;98925.25;;;0.04;56.89
75424;BME280;64005;55.160;36.002;2023-02-28T10:14:06;98915.91;;;-0.05;56.50
75424;BME280;64005;55.160;36.002;2023-02-28T10:16:40;98889.41;;;0.00;57.34
75424;BME280;64005;55.160;36.002;2023-02-28T10:19:16;98896.50;;;-0.09;57.71
75424;BME280;64005;55.160;36.002;2023-02-28T10:21:50;98884.13;;;-0.26;57.62
75424;BME280;64005;55.160;36.002;2023-02-28T10:24:29;98901.09;;;-0.19;58.38
75424;BME280;64005;55.160;36.002;2023-02-28T10:27:00;98897.63;;;0.11;58.29
75424;BME280;64005;55.160;36.002;2023-02-28T10:29:31;98905.00;;;0.10;57.97
75424;BME280;64005;55.160;36.002;2023-02-28T10:32:02;98914.03;;;0.11;58.57
75424;BME280;64005;55.160;36.002;2023-02-28T10:34:30;98908.28;;;0.02;57.96
75424;BME280;64005;55.160;36.002;2023-02-28T10:36:59;98888.03;;;-0.02;58.68
75424;BME280;64005;55.160;36.002;2023-02-28T10:39:40;98882.78;;;-0.29;58.72
75424;BME280;64005;55.160;36.002;2023-02-28T10:42:20;98902.41;;;-0.42;59.65
75424;BME280;64005;55.160;36.002;2023-02-28T10:45:05;98913.25;;;-0.57;60.12
75424;BME280;64005;55.160;36.002;2023-02-28T10:47:34;98893.69;;;-0.34;59.41
75424;BME280;64005;55.160;36.002;2023-02-28T10:50:02;98886.03;;;-0.37;58.98
75424;BME280;64005;55.160;36.002;2023-02-28T10:52:35;98879.78;;;-0.22;59.38
75424;BME280;64005;55.160;36.002;2023-02-28T10:55:22;98877.84;;;-0.32;59.78
75424;BME280;64005;55.160;36.002;2023-02-28T10:57:52;98868.28;;;-0.24;60.22
75424;BME280;64005;55.160;36.002;2023-02-28T11:00:21;98872.69;;;-0.18;59.28
75424;BME280;64005;55.160;36.002;2023-02-28T11:02:51;98857.66;;;-0.16;59.74
75424;BME280;64005;55.160;36.002;2023-02-28T11:05:27;98863.13;;;-0.16;59.76
75424;BME280;64005;55.160;36.002;2023-02-28T11:07:57;98859.00;;;-0.28;59.93
75424;BME280;64005;55.160;36.002;2023-02-28T11:10:31;98851.31;;;-0.36;60.96
75424;BME280;64005;55.160;36.002;2023-02-28T11:13:01;98852.38;;;-0.48;61.29
75424;BME280;64005;55.160;36.002;2023-02-28T11:15:30;98860.25;;;-0.61;62.00
75424;BME280;64005;55.160;36.002;2023-02-28T11:18:01;98824.69;;;-0.76;61.93
75424;BME280;64005;55.160;36.002;2023-02-28T11:20:32;98848.56;;;-0.47;61.75
75424;BME280;64005;55.160;36.002;2023-02-28T11:23:02;98720.22;;;-1.19;62.08
75424;BME280;64005;55.160;36.002;2023-02-28T11:25:33;98857.22;;;-0.60;62.27
75424;BME280;64005;55.160;36.002;2023-02-28T11:28:04;98834.03;;;-0.52;62.40
75424;BME280;64005;55.160;36.002;2023-02-28T11:30:35;98847.69;;;-0.52;62.67
75424;BME280;64005;55.160;36.002;2023-02-28T11:33:20;98837.38;;;-0.40;62.53
75424;BME280;64005;55.160;36.002;2023-02-28T11:35:50;98825.63;;;-0.41;62.70
75424;BME280;64005;55.160;36.002;2023-02-28T11:38:18;98831.88;;;-0.55;63.55
75424;BME280;64005;55.160;36.002;2023-02-28T11:40:55;98831.00;;;-0.66;63.45
75424;BME280;64005;55.160;36.002;2023-02-28T11:43:44;98824.44;;;-0.65;63.87
75424;BME280;64005;55.160;36.002;2023-02-28T11:46:26;98810.22;;;-0.72;64.76
75424;BME280;64005;55.160;36.002;2023-02-28T11:49:03;98828.81;;;-0.74;65.13
75424;BME280;64005;55.160;36.002;2023-02-28T11:51:48;98748.06;;;-1.22;64.99
75424;BME280;64005;55.160;36.002;2023-02-28T11:54:29;98833.97;;;-0.72;64.98
75424;BME280;64005;55.160;36.002;2023-02-28T11:57:17;98830.88;;;-0.91;66.25
75424;BME280;64005;55.160;36.002;2023-02-28T11:59:56;98820.53;;;-0.84;65.98
75424;BME280;64005;55.160;36.002;2023-02-28T12:02:34;98829.31;;;-0.82;65.42
75424;BME280;64005;55.160;36.002;2023-02-28T12:05:14;98818.88;;;-0.90;66.56
75424;BME280;64005;55.160;36.002;2023-02-28T12:07:58;98816.41;;;-0.92;66.30
75424;BME280;64005;55.160;36.002;2023-02-28T12:10:29;98778.41;;;-1.08;67.20
75424;BME280;64005;55.160;36.002;2023-02-28T12:13:12;98816.72;;;-0.83;67.09
75424;BME280;64005;55.160;36.002;2023-02-28T12:16:04;98791.31;;;-0.89;67.54
75424;BME280;64005;55.160;36.002;2023-02-28T12:18:59;98774.06;;;-0.99;68.45
75424;BME280;64005;55.160;36.002;2023-02-28T12:21:36;98795.19;;;-0.74;68.11
75424;BME280;64005;55.160;36.002;2023-02-28T12:24:24;98776.09;;;-0.69;67.57
75424;BME280;64005;55.160;36.002;2023-02-28T12:26:55;98772.59;;;-0.55;67.87
75424;BME280;64005;55.160;36.002;2023-02-28T12:29:28;98768.78;;;-0.44;66.78
75424;BME280;64005;55.160;36.002;2023-02-28T12:31:59;98768.47;;;-0.52;68.06
75424;BME280;64005;55.160;36.002;2023-02-28T12:34:34;98688.84;;;-1.16;68.05
75424;BME280;64005;55.160;36.002;2023-02-28T12:37:07;98780.47;;;-0.68;68.92
75424;BME280;64005;55.160;36.002;2023-02-28T12:39:40;98758.06;;;-0.75;68.85
75424;BME280;64005;55.160;36.002;2023-02-28T12:42:13;98758.56;;;-0.78;69.12
75424;BME280;64005;55.160;36.002;2023-02-28T12:44:49;98750.13;;;-0.82;68.90
75424;BME280;64005;55.160;36.002;2023-02-28T12:47:18;98756.69;;;-0.73;69.26
75424;BME280;64005;55.160;36.002;2023-02-28T12:49:49;98748.78;;;-0.74;69.38
75424;BME280;64005;55.160;36.002;2023-02-28T12:52:24;98733.22;;;-0.74;69.53
75424;BME280;64005;55.160;36.002;2023-02-28T12:54:55;98649.81;;;-1.22;68.81
75424;BME280;64005;55.160;36.002;2023-02-28T12:57:28;98746.09;;;-0.54;69.06
75424;BME280;64005;55.160;36.002;2023-02-28T13:00:08;98722.03;;;-0.67;68.99
75424;BME280;64005;55.160;36.002;2023-02-28T13:02:51;98723.41;;;-0.55;69.29
75424;BME280;64005;55.160;36.002;2023-02-28T13:05:32;98725.59;;;-0.52;68.13
75424;BME280;64005;55.160;36.002;2023-02-28T13:11:24;98728.84;;;-0.60;68.86
75424;BME280;64005;55.160;36.002;2023-02-28T13:13:58;98724.19;;;-0.74;69.50
75424;BME280;64005;55.160;36.002;2023-02-28T13:16:28;98720.66;;;-0.70;69.88
75424;BME280;64005;55.160;36.002;2023-02-28T13:19:18;98693.34;;;-0.75;70.50